sensor_id;sensor_type;location;lat;lon;timestamp;temperature;humidity
36442;DHT22;64346;50.820;16.274;2022-12-29T00:01:02;6.10;99.90
36442;DHT22;64346;50.820;16.274;2022-12-29T00:03:30;6.00;99.90
36442;DHT22;64346;50.820;16.274;2022-12-29T00:05:57;6.00;99.90
36442;DHT22;64346;50.820;16.274;2022-12-29T00:08:29;5.90;99.90
36442;DHT22;64346;50.820;16.274;2022-12-29T00:10:57;5.80;99.90
36442;DHT22;64346;50.820;16.274;2022-12-29T00:13:24;5.80;99.90
36442;DHT22;64346;50.820;16.274;2022-12-29T00:15:54;5.70;99.90
36442;DHT22;64346;50.820;16.274;2022-12-29T00:18:21;5.70;99.90
36442;DHT22;64346;50.820;16.274;2022-12-29T00:20:48;5.70;99.90
36442;DHT22;64346;50.820;16.274;2022-12-29T00:23:18;5.60;99.90
36442;DHT22;64346;50.820;16.274;2022-12-29T00:25:45;5.60;99.90
36442;DHT22;64346;50.820;16.274;2022-12-29T00:28:12;5.60;99.90
36442;DHT22;64346;50.820;16.274;2022-12-29T00:30:42;5.60;99.90
36442;DHT22;64346;50.820;16.274;2022-12-29T00:33:14;5.60;99.90
36442;DHT22;64346;50.820;16.274;2022-12-29T00:35:47;5.70;99.90
36442;DHT22;64346;50.820;16.274;2022-12-29T00:38:18;5.60;99.90
36442;DHT22;64346;50.820;16.274;2022-12-29T00:40:46;5.60;99.90
36442;DHT22;64346;50.820;16.274;2022-12-29T00:43:13;5.60;99.90
36442;DHT22;64346;50.820;16.274;2022-12-29T00:45:41;5.60;99.90
36442;DHT22;64346;50.820;16.274;2022-12-29T00:48:09;5.60;99.90
36442;DHT22;64346;50.820;16.274;2022-12-29T00:50:38;5.70;99.90
36442;DHT22;64346;50.820;16.274;2022-12-29T00:53:06;5.80;99.90
36442;DHT22;64346;50.820;16.274;2022-12-29T00:55:36;5.90;99.90
36442;DHT22;64346;50.820;16.274;2022-12-29T00:58:04;5.90;99.90
36442;DHT22;64346;50.820;16.274;2022-12-29T01:00:31;6.00;99.90
36442;DHT22;64346;50.820;16.274;2022-12-29T01:03:05;6.00;99.90
36442;DHT22;64346;50.820;16.274;2022-12-29T01:05:38;6.00;99.90
36442;DHT22;64346;50.820;16.274;2022-12-29T01:08:06;6.00;99.90
36442;DHT22;64346;50.820;16.274;2022-12-29T01:10:33;5.80;99.90
36442;DHT22;64346;50.820;16.274;2022-12-29T01:13:00;5.70;99.90
36442;DHT22;64346;50.820;16.274;2022-12-29T01:15:28;5.60;99.90
36442;DHT22;64346;50.820;16.274;2022-12-29T01:17:55;5.60;99.90
36442;DHT22;64346;50.820;16.274;2022-12-29T01:20:22;5.50;99.90
36442;DHT22;64346;50.820;16.274;2022-12-29T01:22:50;5.50;99.90
36442;DHT22;64346;50.820;16.274;2022-12-29T01:25:17;5.50;99.90
36442;DHT22;64346;50.820;16.274;2022-12-29T01:27:47;5.40;99.90
36442;DHT22;64346;50.820;16.274;2022-12-29T01:30:14;5.50;99.90
36442;DHT22;64346;50.820;16.274;2022-12-29T01:32:47;5.50;99.90
36442;DHT22;64346;50.820;16.274;2022-12-29T01:35:14;5.50;99.90
36442;DHT22;64346;50.820;16.274;2022-12-29T01:37:44;5.60;99.90
36442;DHT22;64346;50.820;16.274;2022-12-29T01:47:50;5.60;99.90
36442;DHT22;64346;50.820;16.274;2022-12-29T01:50:30;5.50;99.90
36442;DHT22;64346;50.820;16.274;2022-12-29T01:53:05;5.50;99.90
36442;DHT22;64346;50.820;16.274;2022-12-29T01:55:47;5.40;99.90
36442;DHT22;64346;50.820;16.274;2022-12-29T01:58:18;5.40;99.90
36442;DHT22;64346;50.820;16.274;2022-12-29T02:00:47;5.30;99.90
36442;DHT22;64346;50.820;16.274;2022-12-29T02:03:15;5.20;99.90
36442;DHT22;64346;50.820;16.274;2022-12-29T02:06:01;5.20;99.90
36442;DHT22;64346;50.820;16.274;2022-12-29T02:08:29;5.20;99.90
36442;DHT22;64346;50.820;16.274;2022-12-29T02:10:59;5.10;99.90
36442;DHT22;64346;50.820;16.274;2022-12-29T02:13:27;5.10;99.90
36442;DHT22;64346;50.820;16.274;2022-12-29T02:30:35;5.30;99.90
36442;DHT22;64346;50.820;16.274;2022-12-29T02:35:55;5.30;99.90
36442;DHT22;64346;50.820;16.274;2022-12-29T02:41:23;5.30;99.90
36442;DHT22;64346;50.820;16.274;2022-12-29T02:46:47;5.40;99.90
36442;DHT22;64346;50.820;16.274;2022-12-29T02:49:33;5.40;99.90
36442;DHT22;64346;50.820;16.274;2022-12-29T02:52:10;5.50;99.90
36442;DHT22;64346;50.820;16.274;2022-12-29T02:54:40;5.60;99.90
36442;DHT22;64346;50.820;16.274;2022-12-29T02:59:42;5.70;99.90
36442;DHT22;64346;50.820;16.274;2022-12-29T03:02:39;5.80;99.90
36442;DHT22;64346;50.820;16.274;2022-12-29T03:13:39;5.90;99.90
36442;DHT22;64346;50.820;16.274;2022-12-29T03:21:44;6.10;99.90
36442;DHT22;64346;50.820;16.274;2022-12-29T03:24:13;6.10;99.90
36442;DHT22;64346;50.820;16.274;2022-12-29T03:26:42;6.10;99.90
36442;DHT22;64346;50.820;16.274;2022-12-29T03:29:11;6.10;99.90
36442;DHT22;64346;50.820;16.274;2022-12-29T03:31:39;6.20;99.90
36442;DHT22;64346;50.820;16.274;2022-12-29T03:34:11;6.20;99.90
36442;DHT22;64346;50.820;16.274;2022-12-29T03:36:47;6.30;99.90
36442;DHT22;64346;50.820;16.274;2022-12-29T03:39:21;6.40;99.90
36442;DHT22;64346;50.820;16.274;2022-12-29T03:41:59;6.40;99.90
36442;DHT22;64346;50.820;16.274;2022-12-29T03:44:42;6.40;99.90
36442;DHT22;64346;50.820;16.274;2022-12-29T03:47:11;6.50;99.90
36442;DHT22;64346;50.820;16.274;2022-12-29T03:49:39;6.50;99.90
36442;DHT22;64346;50.820;16.274;2022-12-29T03:52:07;6.50;99.90
36442;DHT22;64346;50.820;16.274;2022-12-29T03:54:34;6.50;99.90
36442;DHT22;64346;50.820;16.274;2022-12-29T03:57:01;6.50;99.90
36442;DHT22;64346;50.820;16.274;2022-12-29T03:59:29;6.50;99.90
36442;DHT22;64346;50.820;16.274;2022-12-29T04:01:59;6.50;99.90
36442;DHT22;64346;50.820;16.274;2022-12-29T04:04:27;6.50;99.90
36442;DHT22;64346;50.820;16.274;2022-12-29T04:06:54;6.60;99.90
36442;DHT22;64346;50.820;16.274;2022-12-29T04:09:21;6.50;99.90
36442;DHT22;64346;50.820;16.274;2022-12-29T04:11:49;6.60;99.90
36442;DHT22;64346;50.820;16.274;2022-12-29T04:14:18;6.60;99.90
36442;DHT22;64346;50.820;16.274;2022-12-29T04:16:46;6.60;99.90
36442;DHT22;64346;50.820;16.274;2022-12-29T04:19:13;6.50;99.90
36442;DHT22;64346;50.820;16.274;2022-12-29T04:21:40;6.50;99.90
36442;DHT22;64346;50.820;16.274;2022-12-29T04:24:10;6.50;99.90
36442;DHT22;64346;50.820;16.274;2022-12-29T04:26:38;6.50;99.90
36442;DHT22;64346;50.820;16.274;2022-12-29T04:29:05;6.50;99.90
36442;DHT22;64346;50.820;16.274;2022-12-29T04:31:35;6.50;99.90
36442;DHT22;64346;50.820;16.274;2022-12-29T04:34:04;6.50;99.90
36442;DHT22;64346;50.820;16.274;2022-12-29T04:36:32;6.40;99.90
36442;DHT22;64346;50.820;16.274;2022-12-29T04:39:02;6.40;99.90
36442;DHT22;64346;50.820;16.274;2022-12-29T04:41:30;6.40;99.90
36442;DHT22;64346;50.820;16.274;2022-12-29T04:43:57;6.40;99.90
36442;DHT22;64346;50.820;16.274;2022-12-29T04:46:25;6.30;99.90
36442;DHT22;64346;50.820;16.274;2022-12-29T04:48:54;6.30;99.90
36442;DHT22;64346;50.820;16.274;2022-12-29T04:51:22;6.30;99.90
36442;DHT22;64346;50.820;16.274;2022-12-29T04:53:49;6.20;99.90
36442;DHT22;64346;50.820;16.274;2022-12-29T04:56:19;6.30;99.90
36442;DHT22;64346;50.820;16.274;2022-12-29T04:58:48;6.30;99.90
36442;DHT22;64346;50.820;16.274;2022-12-29T05:01:18;6.30;99.90
36442;DHT22;64346;50.820;16.274;2022-12-29T05:03:45;6.30;99.90
36442;DHT22;64346;50.820;16.274;2022-12-29T05:06:13;6.30;99.90
36442;DHT22;64346;50.820;16.274;2022-12-29T05:08:43;6.20;99.90
36442;DHT22;64346;50.820;16.274;2022-12-29T05:11:10;6.20;99.90
36442;DHT22;64346;50.820;16.274;2022-12-29T05:13:38;6.20;99.90
36442;DHT22;64346;50.820;16.274;2022-12-29T05:16:05;6.20;99.90
36442;DHT22;64346;50.820;16.274;2022-12-29T05:18:35;6.20;99.90
36442;DHT22;64346;50.820;16.274;2022-12-29T05:21:05;6.20;99.90
36442;DHT22;64346;50.820;16.274;2022-12-29T05:23:32;6.20;99.90
36442;DHT22;64346;50.820;16.274;2022-12-29T05:26:00;6.20;99.90
36442;DHT22;64346;50.820;16.274;2022-12-29T05:28:27;6.20;99.90
36442;DHT22;64346;50.820;16.274;2022-12-29T05:30:57;6.20;99.90
36442;DHT22;64346;50.820;16.274;2022-12-29T05:33:24;6.20;99.90
36442;DHT22;64346;50.820;16.274;2022-12-29T05:35:51;6.20;99.90
36442;DHT22;64346;50.820;16.274;2022-12-29T05:38:21;6.20;99.90
36442;DHT22;64346;50.820;16.274;2022-12-29T05:40:49;6.30;99.90
36442;DHT22;64346;50.820;16.274;2022-12-29T05:43:18;6.30;99.90
36442;DHT22;64346;50.820;16.274;2022-12-29T05:45:48;6.30;99.90
36442;DHT22;64346;50.820;16.274;2022-12-29T05:48:16;6.40;99.90
36442;DHT22;64346;50.820;16.274;2022-12-29T05:50:50;6.40;99.90
36442;DHT22;64346;50.820;16.274;2022-12-29T05:53:18;6.30;99.90
36442;DHT22;64346;50.820;16.274;2022-12-29T05:55:49;6.20;99.90
36442;DHT22;64346;50.820;16.274;2022-12-29T05:58:17;6.20;99.90
36442;DHT22;64346;50.820;16.274;2022-12-29T06:00:45;6.20;99.90
36442;DHT22;64346;50.820;16.274;2022-12-29T06:03:12;6.20;99.90
36442;DHT22;64346;50.820;16.274;2022-12-29T06:05:40;6.10;99.90
36442;DHT22;64346;50.820;16.274;2022-12-29T06:08:07;6.10;99.90
36442;DHT22;64346;50.820;16.274;2022-12-29T06:10:34;6.10;99.90
36442;DHT22;64346;50.820;16.274;2022-12-29T06:13:04;6.10;99.90
36442;DHT22;64346;50.820;16.274;2022-12-29T06:15:33;6.00;99.90
36442;DHT22;64346;50.820;16.274;2022-12-29T06:18:00;6.00;99.90
36442;DHT22;64346;50.820;16.274;2022-12-29T06:20:28;5.90;99.90
36442;DHT22;64346;50.820;16.274;2022-12-29T06:22:58;5.90;99.90
36442;DHT22;64346;50.820;16.274;2022-12-29T06:25:28;5.90;99.90
36442;DHT22;64346;50.820;16.274;2022-12-29T06:27:55;5.90;99.90
36442;DHT22;64346;50.820;16.274;2022-12-29T06:30:22;5.90;99.90
36442;DHT22;64346;50.820;16.274;2022-12-29T06:32:50;5.90;99.90
36442;DHT22;64346;50.820;16.274;2022-12-29T06:35:20;5.90;99.90
36442;DHT22;64346;50.820;16.274;2022-12-29T06:37:48;5.90;99.90
36442;DHT22;64346;50.820;16.274;2022-12-29T06:40:18;5.80;99.90
36442;DHT22;64346;50.820;16.274;2022-12-29T06:42:45;5.80;99.90
36442;DHT22;64346;50.820;16.274;2022-12-29T06:45:13;5.70;99.90
36442;DHT22;64346;50.820;16.274;2022-12-29T06:47:42;5.70;99.90
36442;DHT22;64346;50.820;16.274;2022-12-29T06:50:10;5.60;99.90
36442;DHT22;64346;50.820;16.274;2022-12-29T06:52:40;5.60;99.90
36442;DHT22;64346;50.820;16.274;2022-12-29T06:55:07;5.60;99.90
36442;DHT22;64346;50.820;16.274;2022-12-29T06:57:35;5.60;99.90
36442;DHT22;64346;50.820;16.274;2022-12-29T07:00:04;5.60;99.90
36442;DHT22;64346;50.820;16.274;2022-12-29T07:02:33;5.70;99.90
36442;DHT22;64346;50.820;16.274;2022-12-29T07:05:01;5.70;99.90
36442;DHT22;64346;50.820;16.274;2022-12-29T07:07:28;5.80;99.90
36442;DHT22;64346;50.820;16.274;2022-12-29T07:10:01;5.90;99.90
36442;DHT22;64346;50.820;16.274;2022-12-29T07:12:33;6.00;99.90
36442;DHT22;64346;50.820;16.274;2022-12-29T07:15:00;6.20;99.90
36442;DHT22;64346;50.820;16.274;2022-12-29T07:17:28;6.30;99.90
36442;DHT22;64346;50.820;16.274;2022-12-29T07:19:55;6.40;99.90
36442;DHT22;64346;50.820;16.274;2022-12-29T07:22:25;6.50;99.90
36442;DHT22;64346;50.820;16.274;2022-12-29T07:24:54;6.60;99.90
36442;DHT22;64346;50.820;16.274;2022-12-29T07:27:21;6.70;99.90
36442;DHT22;64346;50.820;16.274;2022-12-29T07:29:51;6.80;99.90
36442;DHT22;64346;50.820;16.274;2022-12-29T07:32:21;6.80;99.90
36442;DHT22;64346;50.820;16.274;2022-12-29T07:34:48;6.90;99.90
36442;DHT22;64346;50.820;16.274;2022-12-29T07:37:16;7.00;99.90
36442;DHT22;64346;50.820;16.274;2022-12-29T07:39:46;7.00;99.90
36442;DHT22;64346;50.820;16.274;2022-12-29T07:42:15;7.10;99.90
36442;DHT22;64346;50.820;16.274;2022-12-29T07:44:46;7.20;99.90
36442;DHT22;64346;50.820;16.274;2022-12-29T07:47:13;7.40;99.90
36442;DHT22;64346;50.820;16.274;2022-12-29T07:49:41;7.60;99.90
36442;DHT22;64346;50.820;16.274;2022-12-29T07:52:08;7.80;99.90
36442;DHT22;64346;50.820;16.274;2022-12-29T07:54:37;7.90;99.90
36442;DHT22;64346;50.820;16.274;2022-12-29T07:57:05;7.90;99.90
36442;DHT22;64346;50.820;16.274;2022-12-29T07:59:35;7.90;99.90
36442;DHT22;64346;50.820;16.274;2022-12-29T08:02:02;7.80;99.90
36442;DHT22;64346;50.820;16.274;2022-12-29T08:04:30;7.80;99.90
36442;DHT22;64346;50.820;16.274;2022-12-29T08:06:57;7.70;99.90
36442;DHT22;64346;50.820;16.274;2022-12-29T08:09:24;7.60;99.90
36442;DHT22;64346;50.820;16.274;2022-12-29T08:11:53;7.70;99.90
36442;DHT22;64346;50.820;16.274;2022-12-29T08:14:21;7.60;99.90
36442;DHT22;64346;50.820;16.274;2022-12-29T08:16:49;7.60;99.90
36442;DHT22;64346;50.820;16.274;2022-12-29T08:19:16;7.70;99.90
36442;DHT22;64346;50.820;16.274;2022-12-29T08:21:45;7.80;99.90
36442;DHT22;64346;50.820;16.274;2022-12-29T08:24:15;8.00;99.90
36442;DHT22;64346;50.820;16.274;2022-12-29T08:26:42;8.00;99.90
36442;DHT22;64346;50.820;16.274;2022-12-29T08:29:10;8.00;99.90
36442;DHT22;64346;50.820;16.274;2022-12-29T08:31:37;8.00;99.90
36442;DHT22;64346;50.820;16.274;2022-12-29T08:34:07;8.00;99.90
36442;DHT22;64346;50.820;16.274;2022-12-29T08:36:34;8.10;99.90
36442;DHT22;64346;50.820;16.274;2022-12-29T08:39:02;8.20;99.90
36442;DHT22;64346;50.820;16.274;2022-12-29T08:41:29;8.20;99.90
36442;DHT22;64346;50.820;16.274;2022-12-29T08:43:57;8.30;99.90
36442;DHT22;64346;50.820;16.274;2022-12-29T08:46:24;8.40;99.90
36442;DHT22;64346;50.820;16.274;2022-12-29T08:48:53;8.40;99.90
36442;DHT22;64346;50.820;16.274;2022-12-29T08:51:21;8.50;99.90
36442;DHT22;64346;50.820;16.274;2022-12-29T08:53:51;8.60;99.90
36442;DHT22;64346;50.820;16.274;2022-12-29T08:56:24;8.80;99.90
36442;DHT22;64346;50.820;16.274;2022-12-29T08:58:55;9.00;99.90
36442;DHT22;64346;50.820;16.274;2022-12-29T09:01:22;9.10;99.90
36442;DHT22;64346;50.820;16.274;2022-12-29T09:03:50;9.30;99.90
36442;DHT22;64346;50.820;16.274;2022-12-29T09:06:40;9.40;99.90
36442;DHT22;64346;50.820;16.274;2022-12-29T09:09:09;9.50;99.90
36442;DHT22;64346;50.820;16.274;2022-12-29T09:11:36;9.70;99.90
36442;DHT22;64346;50.820;16.274;2022-12-29T09:14:07;9.60;99.90
36442;DHT22;64346;50.820;16.274;2022-12-29T09:16:35;9.60;99.90
36442;DHT22;64346;50.820;16.274;2022-12-29T09:19:02;9.70;99.90
36442;DHT22;64346;50.820;16.274;2022-12-29T09:21:30;10.00;99.90
36442;DHT22;64346;50.820;16.274;2022-12-29T09:23:58;10.60;99.90
36442;DHT22;64346;50.820;16.274;2022-12-29T09:26:29;11.90;99.90
36442;DHT22;64346;50.820;16.274;2022-12-29T09:28:57;13.30;99.90
36442;DHT22;64346;50.820;16.274;2022-12-29T09:31:24;14.90;95.80
36442;DHT22;64346;50.820;16.274;2022-12-29T09:33:52;16.00;92.20
36442;DHT22;64346;50.820;16.274;2022-12-29T09:36:19;16.70;88.70
36442;DHT22;64346;50.820;16.274;2022-12-29T09:38:46;16.90;85.10
36442;DHT22;64346;50.820;16.274;2022-12-29T09:41:22;17.60;81.10
36442;DHT22;64346;50.820;16.274;2022-12-29T09:46:46;18.60;74.40
36442;DHT22;64346;50.820;16.274;2022-12-29T09:49:27;19.10;71.70
36442;DHT22;64346;50.820;16.274;2022-12-29T09:51:59;19.40;70.30
36442;DHT22;64346;50.820;16.274;2022-12-29T09:57:00;17.90;69.00
36442;DHT22;64346;50.820;16.274;2022-12-29T09:59:40;16.20;72.50
36442;DHT22;64346;50.820;16.274;2022-12-29T10:02:36;14.80;76.20
36442;DHT22;64346;50.820;16.274;2022-12-29T10:08:10;13.30;81.30
36442;DHT22;64346;50.820;16.274;2022-12-29T10:16:20;13.90;81.70
36442;DHT22;64346;50.820;16.274;2022-12-29T10:24:04;14.20;80.60
36442;DHT22;64346;50.820;16.274;2022-12-29T10:26:41;14.10;80.60
36442;DHT22;64346;50.820;16.274;2022-12-29T10:31:50;15.00;78.40
36442;DHT22;64346;50.820;16.274;2022-12-29T10:34:29;15.10;78.10
36442;DHT22;64346;50.820;16.274;2022-12-29T10:37:17;15.00;77.60
36442;DHT22;64346;50.820;16.274;2022-12-29T10:39:50;14.80;78.40
36442;DHT22;64346;50.820;16.274;2022-12-29T10:44:51;14.60;79.20
36442;DHT22;64346;50.820;16.274;2022-12-29T10:47:24;15.00;78.70
36442;DHT22;64346;50.820;16.274;2022-12-29T10:49:54;15.60;77.70
36442;DHT22;64346;50.820;16.274;2022-12-29T10:52:23;16.50;76.40
36442;DHT22;64346;50.820;16.274;2022-12-29T10:55:03;16.70;75.20
36442;DHT22;64346;50.820;16.274;2022-12-29T10:57:43;16.80;74.80
36442;DHT22;64346;50.820;16.274;2022-12-29T11:00:19;17.40;74.80
36442;DHT22;64346;50.820;16.274;2022-12-29T11:08:22;19.90;69.90
36442;DHT22;64346;50.820;16.274;2022-12-29T11:11:09;20.40;67.70
36442;DHT22;64346;50.820;16.274;2022-12-29T11:13:49;20.50;66.10
36442;DHT22;64346;50.820;16.274;2022-12-29T11:16:29;20.40;64.70
36442;DHT22;64346;50.820;16.274;2022-12-29T11:18:57;20.10;64.90
36442;DHT22;64346;50.820;16.274;2022-12-29T11:21:35;19.40;65.30
36442;DHT22;64346;50.820;16.274;2022-12-29T11:24:04;18.90;66.50
36442;DHT22;64346;50.820;16.274;2022-12-29T11:26:33;17.90;67.70
36442;DHT22;64346;50.820;16.274;2022-12-29T11:31:48;14.90;73.40
36442;DHT22;64346;50.820;16.274;2022-12-29T11:36:53;13.90;77.30
36442;DHT22;64346;50.820;16.274;2022-12-29T11:39:32;13.80;78.30
36442;DHT22;64346;50.820;16.274;2022-12-29T11:42:03;13.40;79.50
36442;DHT22;64346;50.820;16.274;2022-12-29T11:44:36;13.20;80.70
36442;DHT22;64346;50.820;16.274;2022-12-29T11:47:05;12.80;81.80
36442;DHT22;64346;50.820;16.274;2022-12-29T11:49:39;12.60;83.20
36442;DHT22;64346;50.820;16.274;2022-12-29T11:52:07;12.50;84.20
36442;DHT22;64346;50.820;16.274;2022-12-29T11:54:40;12.40;85.10
36442;DHT22;64346;50.820;16.274;2022-12-29T11:57:15;12.30;85.50
36442;DHT22;64346;50.820;16.274;2022-12-29T11:59:54;12.20;86.60
36442;DHT22;64346;50.820;16.274;2022-12-29T12:04:58;11.70;88.60
36442;DHT22;64346;50.820;16.274;2022-12-29T12:07:38;11.50;89.70
36442;DHT22;64346;50.820;16.274;2022-12-29T12:10:33;11.20;90.60
36442;DHT22;64346;50.820;16.274;2022-12-29T12:13:18;11.10;91.10
36442;DHT22;64346;50.820;16.274;2022-12-29T12:15:57;10.80;91.80
36442;DHT22;64346;50.820;16.274;2022-12-29T12:21:05;10.30;93.60
36442;DHT22;64346;50.820;16.274;2022-12-29T12:26:47;10.10;95.30
36442;DHT22;64346;50.820;16.274;2022-12-29T12:29:22;10.10;95.90
36442;DHT22;64346;50.820;16.274;2022-12-29T12:32:12;10.10;96.40
36442;DHT22;64346;50.820;16.274;2022-12-29T12:34:47;10.20;96.70
36442;DHT22;64346;50.820;16.274;2022-12-29T12:37:33;10.30;97.00
36442;DHT22;64346;50.820;16.274;2022-12-29T12:45:48;10.20;97.90
36442;DHT22;64346;50.820;16.274;2022-12-29T12:48:16;10.10;98.20
36442;DHT22;64346;50.820;16.274;2022-12-29T12:51:17;10.20;98.50
36442;DHT22;64346;50.820;16.274;2022-12-29T12:53:51;10.30;98.80
36442;DHT22;64346;50.820;16.274;2022-12-29T13:04:57;10.40;99.30
36442;DHT22;64346;50.820;16.274;2022-12-29T13:10:50;10.40;99.90
36442;DHT22;64346;50.820;16.274;2022-12-29T13:24:47;10.20;99.90
36442;DHT22;64346;50.820;16.274;2022-12-29T13:37:52;10.00;99.90
36442;DHT22;64346;50.820;16.274;2022-12-29T13:40:26;10.00;99.90
36442;DHT22;64346;50.820;16.274;2022-12-29T13:42:56;9.90;99.90
36442;DHT22;64346;50.820;16.274;2022-12-29T13:45:25;9.80;99.90
36442;DHT22;64346;50.820;16.274;2022-12-29T13:48:07;9.80;99.90
36442;DHT22;64346;50.820;16.274;2022-12-29T13:50:41;9.60;99.90
36442;DHT22;64346;50.820;16.274;2022-12-29T13:56:20;9.50;99.90
36442;DHT22;64346;50.820;16.274;2022-12-29T14:02:00;9.40;99.90
36442;DHT22;64346;50.820;16.274;2022-12-29T14:04:30;9.40;99.90
36442;DHT22;64346;50.820;16.274;2022-12-29T14:07:18;9.30;99.90
36442;DHT22;64346;50.820;16.274;2022-12-29T14:09:51;9.30;99.90
36442;DHT22;64346;50.820;16.274;2022-12-29T14:17:39;9.30;99.90
36442;DHT22;64346;50.820;16.274;2022-12-29T14:20:25;9.40;99.90
36442;DHT22;64346;50.820;16.274;2022-12-29T14:23:26;9.30;99.90
36442;DHT22;64346;50.820;16.274;2022-12-29T14:28:31;9.50;99.90
36442;DHT22;64346;50.820;16.274;2022-12-29T14:31:32;9.70;99.90
36442;DHT22;64346;50.820;16.274;2022-12-29T14:36:41;9.50;99.90
36442;DHT22;64346;50.820;16.274;2022-12-29T14:45:03;9.00;99.90
36442;DHT22;64346;50.820;16.274;2022-12-29T14:47:35;8.90;99.90
36442;DHT22;64346;50.820;16.274;2022-12-29T14:52:47;8.70;99.90
36442;DHT22;64346;50.820;16.274;2022-12-29T14:57:57;8.50;99.90
36442;DHT22;64346;50.820;16.274;2022-12-29T15:00:34;8.40;99.90
36442;DHT22;64346;50.820;16.274;2022-12-29T15:05:47;8.20;99.90
36442;DHT22;64346;50.820;16.274;2022-12-29T15:08:24;8.10;99.90
36442;DHT22;64346;50.820;16.274;2022-12-29T15:11:10;8.20;99.90
36442;DHT22;64346;50.820;16.274;2022-12-29T15:13:41;8.10;99.90
36442;DHT22;64346;50.820;16.274;2022-12-29T15:18:48;7.80;99.90
36442;DHT22;64346;50.820;16.274;2022-12-29T15:21:23;7.70;99.90
36442;DHT22;64346;50.820;16.274;2022-12-29T15:23:52;7.60;99.90
36442;DHT22;64346;50.820;16.274;2022-12-29T15:26:20;7.50;99.90
36442;DHT22;64346;50.820;16.274;2022-12-29T15:28:50;7.50;99.90
36442;DHT22;64346;50.820;16.274;2022-12-29T15:31:23;7.50;99.90
36442;DHT22;64346;50.820;16.274;2022-12-29T15:34:14;7.40;99.90
36442;DHT22;64346;50.820;16.274;2022-12-29T15:36:41;7.50;99.90
36442;DHT22;64346;50.820;16.274;2022-12-29T15:39:41;7.50;99.90
36442;DHT22;64346;50.820;16.274;2022-12-29T15:45:30;7.50;99.90
36442;DHT22;64346;50.820;16.274;2022-12-29T15:47:59;7.50;99.90
36442;DHT22;64346;50.820;16.274;2022-12-29T15:50:30;7.50;99.90
36442;DHT22;64346;50.820;16.274;2022-12-29T15:53:02;7.60;99.90
36442;DHT22;64346;50.820;16.274;2022-12-29T15:55:36;7.60;99.90
36442;DHT22;64346;50.820;16.274;2022-12-29T15:58:21;7.50;99.90
36442;DHT22;64346;50.820;16.274;2022-12-29T16:00:53;7.50;99.90
36442;DHT22;64346;50.820;16.274;2022-12-29T16:03:22;7.50;99.90
36442;DHT22;64346;50.820;16.274;2022-12-29T16:06:06;7.60;99.90
36442;DHT22;64346;50.820;16.274;2022-12-29T16:08:36;7.60;99.90
36442;DHT22;64346;50.820;16.274;2022-12-29T16:13:44;7.50;99.90
36442;DHT22;64346;50.820;16.274;2022-12-29T16:16:18;7.50;99.90
36442;DHT22;64346;50.820;16.274;2022-12-29T16:18:50;7.50;99.90
36442;DHT22;64346;50.820;16.274;2022-12-29T16:21:30;7.50;99.90
36442;DHT22;64346;50.820;16.274;2022-12-29T16:24:07;7.50;99.90
36442;DHT22;64346;50.820;16.274;2022-12-29T16:26:38;7.60;99.90
36442;DHT22;64346;50.820;16.274;2022-12-29T16:29:07;7.60;99.90
36442;DHT22;64346;50.820;16.274;2022-12-29T16:31:53;7.60;99.90
36442;DHT22;64346;50.820;16.274;2022-12-29T16:34:31;7.70;99.90
36442;DHT22;64346;50.820;16.274;2022-12-29T16:37:49;7.70;99.90
36442;DHT22;64346;50.820;16.274;2022-12-29T16:39:50;7.70;99.90
36442;DHT22;64346;50.820;16.274;2022-12-29T16:42:47;7.70;99.90
36442;DHT22;64346;50.820;16.274;2022-12-29T16:50:26;7.60;99.90
36442;DHT22;64346;50.820;16.274;2022-12-29T16:52:57;7.60;99.90
36442;DHT22;64346;50.820;16.274;2022-12-29T16:55:27;7.60;99.90
36442;DHT22;64346;50.820;16.274;2022-12-29T16:57:55;7.60;99.90
36442;DHT22;64346;50.820;16.274;2022-12-29T17:00:29;7.60;99.90
36442;DHT22;64346;50.820;16.274;2022-12-29T17:03:01;7.50;99.90
36442;DHT22;64346;50.820;16.274;2022-12-29T17:05:29;7.40;99.90
36442;DHT22;64346;50.820;16.274;2022-12-29T17:07:59;7.40;99.90
36442;DHT22;64346;50.820;16.274;2022-12-29T17:10:26;7.30;99.90
36442;DHT22;64346;50.820;16.274;2022-12-29T17:12:56;7.20;99.90
36442;DHT22;64346;50.820;16.274;2022-12-29T17:15:26;7.20;99.90
36442;DHT22;64346;50.820;16.274;2022-12-29T17:17:55;7.20;99.90
36442;DHT22;64346;50.820;16.274;2022-12-29T17:20:24;7.10;99.90
36442;DHT22;64346;50.820;16.274;2022-12-29T17:22:52;7.00;99.90
36442;DHT22;64346;50.820;16.274;2022-12-29T17:25:22;7.00;99.90
36442;DHT22;64346;50.820;16.274;2022-12-29T17:28:30;7.00;99.90
36442;DHT22;64346;50.820;16.274;2022-12-29T17:30:52;7.10;99.90
36442;DHT22;64346;50.820;16.274;2022-12-29T17:33:25;7.20;99.90
36442;DHT22;64346;50.820;16.274;2022-12-29T17:35:59;7.30;99.90
36442;DHT22;64346;50.820;16.274;2022-12-29T17:38:33;7.30;99.90
36442;DHT22;64346;50.820;16.274;2022-12-29T17:41:01;7.30;99.90
36442;DHT22;64346;50.820;16.274;2022-12-29T17:43:28;7.30;99.90
36442;DHT22;64346;50.820;16.274;2022-12-29T17:46:06;7.30;99.90
36442;DHT22;64346;50.820;16.274;2022-12-29T17:48:34;7.30;99.90
36442;DHT22;64346;50.820;16.274;2022-12-29T17:51:04;7.30;99.90
36442;DHT22;64346;50.820;16.274;2022-12-29T17:53:32;7.20;99.90
36442;DHT22;64346;50.820;16.274;2022-12-29T17:55:59;7.20;99.90
36442;DHT22;64346;50.820;16.274;2022-12-29T17:58:28;7.30;99.90
36442;DHT22;64346;50.820;16.274;2022-12-29T18:01:01;7.20;99.90
36442;DHT22;64346;50.820;16.274;2022-12-29T18:03:40;7.20;99.90
36442;DHT22;64346;50.820;16.274;2022-12-29T18:06:10;7.10;99.90
36442;DHT22;64346;50.820;16.274;2022-12-29T18:08:39;7.10;99.90
36442;DHT22;64346;50.820;16.274;2022-12-29T18:11:24;7.10;99.90
36442;DHT22;64346;50.820;16.274;2022-12-29T18:13:52;7.00;99.90
36442;DHT22;64346;50.820;16.274;2022-12-29T18:16:23;7.00;99.90
36442;DHT22;64346;50.820;16.274;2022-12-29T18:18:53;7.00;99.90
36442;DHT22;64346;50.820;16.274;2022-12-29T18:21:22;6.90;99.90
36442;DHT22;64346;50.820;16.274;2022-12-29T18:23:50;6.90;99.90
36442;DHT22;64346;50.820;16.274;2022-12-29T18:26:20;6.90;99.90
36442;DHT22;64346;50.820;16.274;2022-12-29T18:28:57;6.90;99.90
36442;DHT22;64346;50.820;16.274;2022-12-29T18:31:27;6.90;99.90
36442;DHT22;64346;50.820;16.274;2022-12-29T18:33:57;6.80;99.90
36442;DHT22;64346;50.820;16.274;2022-12-29T18:36:25;6.90;99.90
36442;DHT22;64346;50.820;16.274;2022-12-29T18:38:57;6.80;99.90
36442;DHT22;64346;50.820;16.274;2022-12-29T18:41:27;6.90;99.90
36442;DHT22;64346;50.820;16.274;2022-12-29T18:43:55;6.90;99.90
36442;DHT22;64346;50.820;16.274;2022-12-29T18:46:23;6.90;99.90
36442;DHT22;64346;50.820;16.274;2022-12-29T18:48:53;7.00;99.90